sensor_id;sensor_type;location;lat;lon;timestamp;temperature;humidity
9919;DHT22;4998;51.024;13.828;2023-09-12T00:01:07;23.80;75.80
9919;DHT22;4998;51.024;13.828;2023-09-12T00:03:34;23.80;76.40
9919;DHT22;4998;51.024;13.828;2023-09-12T00:06:02;23.70;76.30
9919;DHT22;4998;51.024;13.828;2023-09-12T00:08:29;23.70;76.40
9919;DHT22;4998;51.024;13.828;2023-09-12T00:11:03;23.70;76.50
9919;DHT22;4998;51.024;13.828;2023-09-12T00:13:32;23.70;77.40
9919;DHT22;4998;51.024;13.828;2023-09-12T00:15:59;23.70;77.20
9919;DHT22;4998;51.024;13.828;2023-09-12T00:18:26;23.70;77.10
9919;DHT22;4998;51.024;13.828;2023-09-12T00:20:53;23.60;77.30
9919;DHT22;4998;51.024;13.828;2023-09-12T00:23:21;23.60;77.60
9919;DHT22;4998;51.024;13.828;2023-09-12T00:25:49;23.60;77.80
9919;DHT22;4998;51.024;13.828;2023-09-12T00:28:17;23.60;78.10
9919;DHT22;4998;51.024;13.828;2023-09-12T00:30:45;23.60;78.20
9919;DHT22;4998;51.024;13.828;2023-09-12T00:33:12;23.60;78.50
9919;DHT22;4998;51.024;13.828;2023-09-12T00:35:39;23.50;78.40
9919;DHT22;4998;51.024;13.828;2023-09-12T00:38:06;23.50;78.50
9919;DHT22;4998;51.024;13.828;2023-09-12T00:40:33;23.50;78.70
9919;DHT22;4998;51.024;13.828;2023-09-12T00:43:00;23.50;78.80
9919;DHT22;4998;51.024;13.828;2023-09-12T00:45:27;23.50;79.10
9919;DHT22;4998;51.024;13.828;2023-09-12T00:47:57;23.50;79.10
9919;DHT22;4998;51.024;13.828;2023-09-12T00:50:25;23.40;79.50
9919;DHT22;4998;51.024;13.828;2023-09-12T00:52:53;23.40;80.30
9919;DHT22;4998;51.024;13.828;2023-09-12T00:55:21;23.40;79.70
9919;DHT22;4998;51.024;13.828;2023-09-12T00:57:49;23.40;79.70
9919;DHT22;4998;51.024;13.828;2023-09-12T01:00:17;23.40;80.00
9919;DHT22;4998;51.024;13.828;2023-09-12T01:02:46;23.30;79.90
9919;DHT22;4998;51.024;13.828;2023-09-12T01:05:16;23.30;80.10
9919;DHT22;4998;51.024;13.828;2023-09-12T01:07:43;23.30;80.30
9919;DHT22;4998;51.024;13.828;2023-09-12T01:10:11;23.30;81.20
9919;DHT22;4998;51.024;13.828;2023-09-12T01:12:38;23.20;80.10
9919;DHT22;4998;51.024;13.828;2023-09-12T01:15:06;23.20;80.40
9919;DHT22;4998;51.024;13.828;2023-09-12T01:17:39;23.20;80.70
9919;DHT22;4998;51.024;13.828;2023-09-12T01:20:11;23.20;80.70
9919;DHT22;4998;51.024;13.828;2023-09-12T01:22:57;23.20;81.20
9919;DHT22;4998;51.024;13.828;2023-09-12T01:25:46;23.10;81.30
9919;DHT22;4998;51.024;13.828;2023-09-12T01:28:19;23.10;81.40
9919;DHT22;4998;51.024;13.828;2023-09-12T01:30:49;23.10;81.30
9919;DHT22;4998;51.024;13.828;2023-09-12T01:33:17;23.10;81.30
9919;DHT22;4998;51.024;13.828;2023-09-12T01:35:45;23.00;82.10
9919;DHT22;4998;51.024;13.828;2023-09-12T01:38:12;23.00;81.30
9919;DHT22;4998;51.024;13.828;2023-09-12T01:40:45;23.00;81.50
9919;DHT22;4998;51.024;13.828;2023-09-12T01:43:15;23.00;82.00
9919;DHT22;4998;51.024;13.828;2023-09-12T01:45:45;23.00;81.90
9919;DHT22;4998;51.024;13.828;2023-09-12T01:48:15;23.00;82.10
9919;DHT22;4998;51.024;13.828;2023-09-12T01:50:45;22.90;82.80
9919;DHT22;4998;51.024;13.828;2023-09-12T01:53:13;22.80;81.90
9919;DHT22;4998;51.024;13.828;2023-09-12T01:55:42;22.80;82.20
9919;DHT22;4998;51.024;13.828;2023-09-12T01:58:10;22.80;82.40
9919;DHT22;4998;51.024;13.828;2023-09-12T02:00:38;22.70;82.30
9919;DHT22;4998;51.024;13.828;2023-09-12T02:03:07;22.70;82.60
9919;DHT22;4998;51.024;13.828;2023-09-12T02:05:34;22.70;83.00
9919;DHT22;4998;51.024;13.828;2023-09-12T02:08:03;22.70;82.80
9919;DHT22;4998;51.024;13.828;2023-09-12T02:10:30;22.60;82.90
9919;DHT22;4998;51.024;13.828;2023-09-12T02:12:57;22.60;83.00
9919;DHT22;4998;51.024;13.828;2023-09-12T02:15:24;22.60;83.20
9919;DHT22;4998;51.024;13.828;2023-09-12T02:17:52;22.50;83.20
9919;DHT22;4998;51.024;13.828;2023-09-12T02:20:20;22.50;83.30
9919;DHT22;4998;51.024;13.828;2023-09-12T02:22:47;22.50;83.50
9919;DHT22;4998;51.024;13.828;2023-09-12T02:25:14;22.40;83.30
9919;DHT22;4998;51.024;13.828;2023-09-12T02:27:41;22.40;83.50
9919;DHT22;4998;51.024;13.828;2023-09-12T02:30:08;22.40;83.70
9919;DHT22;4998;51.024;13.828;2023-09-12T02:32:35;22.40;84.00
9919;DHT22;4998;51.024;13.828;2023-09-12T02:35:03;22.40;84.00
9919;DHT22;4998;51.024;13.828;2023-09-12T02:37:31;22.30;84.20
9919;DHT22;4998;51.024;13.828;2023-09-12T02:39:58;22.30;84.50
9919;DHT22;4998;51.024;13.828;2023-09-12T02:42:25;22.20;84.30
9919;DHT22;4998;51.024;13.828;2023-09-12T02:44:52;22.20;84.40
9919;DHT22;4998;51.024;13.828;2023-09-12T02:47:19;22.20;84.50
9919;DHT22;4998;51.024;13.828;2023-09-12T02:49:46;22.20;84.80
9919;DHT22;4998;51.024;13.828;2023-09-12T02:52:13;22.10;84.80
9919;DHT22;4998;51.024;13.828;2023-09-12T02:54:41;22.10;85.00
9919;DHT22;4998;51.024;13.828;2023-09-12T02:57:08;22.10;85.20
9919;DHT22;4998;51.024;13.828;2023-09-12T02:59:36;22.00;85.00
9919;DHT22;4998;51.024;13.828;2023-09-12T03:02:03;22.00;85.20
9919;DHT22;4998;51.024;13.828;2023-09-12T03:04:30;22.00;85.20
9919;DHT22;4998;51.024;13.828;2023-09-12T03:06:57;21.90;85.30
9919;DHT22;4998;51.024;13.828;2023-09-12T03:09:24;21.90;85.40
9919;DHT22;4998;51.024;13.828;2023-09-12T03:11:52;21.90;85.40
9919;DHT22;4998;51.024;13.828;2023-09-12T03:14:19;21.80;85.60
9919;DHT22;4998;51.024;13.828;2023-09-12T03:16:46;21.80;85.60
9919;DHT22;4998;51.024;13.828;2023-09-12T03:19:13;21.80;85.70
9919;DHT22;4998;51.024;13.828;2023-09-12T03:21:40;21.70;85.80
9919;DHT22;4998;51.024;13.828;2023-09-12T03:24:07;21.80;86.00
9919;DHT22;4998;51.024;13.828;2023-09-12T03:26:35;21.70;86.10
9919;DHT22;4998;51.024;13.828;2023-09-12T03:29:04;21.60;86.40
9919;DHT22;4998;51.024;13.828;2023-09-12T03:31:31;21.60;86.50
9919;DHT22;4998;51.024;13.828;2023-09-12T03:33:58;21.60;86.60
9919;DHT22;4998;51.024;13.828;2023-09-12T03:36:25;21.50;86.70
9919;DHT22;4998;51.024;13.828;2023-09-12T03:38:52;21.40;88.80
9919;DHT22;4998;51.024;13.828;2023-09-12T03:41:19;21.40;88.20
9919;DHT22;4998;51.024;13.828;2023-09-12T03:43:50;21.40;88.10
9919;DHT22;4998;51.024;13.828;2023-09-12T03:46:19;21.40;88.00
9919;DHT22;4998;51.024;13.828;2023-09-12T03:48:46;21.40;88.20
9919;DHT22;4998;51.024;13.828;2023-09-12T03:51:13;21.40;88.00
9919;DHT22;4998;51.024;13.828;2023-09-12T03:53:40;21.40;88.10
9919;DHT22;4998;51.024;13.828;2023-09-12T03:56:07;21.40;88.10
9919;DHT22;4998;51.024;13.828;2023-09-12T03:58:37;21.30;88.10
9919;DHT22;4998;51.024;13.828;2023-09-12T04:01:04;21.30;88.10
9919;DHT22;4998;51.024;13.828;2023-09-12T04:03:33;21.30;88.10
9919;DHT22;4998;51.024;13.828;2023-09-12T04:06:00;21.30;88.50
9919;DHT22;4998;51.024;13.828;2023-09-12T04:08:27;21.30;88.40
9919;DHT22;4998;51.024;13.828;2023-09-12T04:10:54;21.30;88.40
9919;DHT22;4998;51.024;13.828;2023-09-12T04:13:21;21.30;88.40
9919;DHT22;4998;51.024;13.828;2023-09-12T04:15:48;21.20;88.40
9919;DHT22;4998;51.024;13.828;2023-09-12T04:18:15;21.30;88.60
9919;DHT22;4998;51.024;13.828;2023-09-12T04:20:43;21.20;88.60
9919;DHT22;4998;51.024;13.828;2023-09-12T04:23:10;21.20;88.70
9919;DHT22;4998;51.024;13.828;2023-09-12T04:25:37;21.20;88.70
9919;DHT22;4998;51.024;13.828;2023-09-12T04:28:04;21.20;88.70
9919;DHT22;4998;51.024;13.828;2023-09-12T04:30:31;21.20;88.90
9919;DHT22;4998;51.024;13.828;2023-09-12T04:32:58;21.20;89.00
9919;DHT22;4998;51.024;13.828;2023-09-12T04:35:26;21.10;88.90
9919;DHT22;4998;51.024;13.828;2023-09-12T04:37:54;21.10;89.00
9919;DHT22;4998;51.024;13.828;2023-09-12T04:40:21;21.10;89.30
9919;DHT22;4998;51.024;13.828;2023-09-12T04:42:48;21.10;89.30
9919;DHT22;4998;51.024;13.828;2023-09-12T04:45:15;21.10;89.50
9919;DHT22;4998;51.024;13.828;2023-09-12T04:47:42;21.10;89.50
9919;DHT22;4998;51.024;13.828;2023-09-12T04:50:09;21.10;89.70
9919;DHT22;4998;51.024;13.828;2023-09-12T04:52:37;21.10;89.80
9919;DHT22;4998;51.024;13.828;2023-09-12T04:55:06;21.10;89.80
9919;DHT22;4998;51.024;13.828;2023-09-12T04:57:33;21.10;90.00
9919;DHT22;4998;51.024;13.828;2023-09-12T05:00:00;21.10;89.90
9919;DHT22;4998;51.024;13.828;2023-09-12T05:02:27;21.00;89.80
9919;DHT22;4998;51.024;13.828;2023-09-12T05:04:54;21.00;90.00
9919;DHT22;4998;51.024;13.828;2023-09-12T05:07:21;21.00;90.00
9919;DHT22;4998;51.024;13.828;2023-09-12T05:09:48;21.00;90.00
9919;DHT22;4998;51.024;13.828;2023-09-12T05:12:16;21.00;90.10
9919;DHT22;4998;51.024;13.828;2023-09-12T05:14:43;21.10;90.30
9919;DHT22;4998;51.024;13.828;2023-09-12T05:17:10;21.10;90.20
9919;DHT22;4998;51.024;13.828;2023-09-12T05:19:37;21.10;90.30
9919;DHT22;4998;51.024;13.828;2023-09-12T05:22:04;21.10;90.30
9919;DHT22;4998;51.024;13.828;2023-09-12T05:24:31;21.10;90.30
9919;DHT22;4998;51.024;13.828;2023-09-12T05:26:58;21.10;90.40
9919;DHT22;4998;51.024;13.828;2023-09-12T05:29:26;21.10;90.40
9919;DHT22;4998;51.024;13.828;2023-09-12T05:31:53;21.20;90.60
9919;DHT22;4998;51.024;13.828;2023-09-12T05:34:20;21.20;90.60
9919;DHT22;4998;51.024;13.828;2023-09-12T05:36:47;21.20;90.60
9919;DHT22;4998;51.024;13.828;2023-09-12T05:39:14;21.30;90.60
9919;DHT22;4998;51.024;13.828;2023-09-12T05:41:41;21.30;90.60
9919;DHT22;4998;51.024;13.828;2023-09-12T05:44:08;21.40;90.70
9919;DHT22;4998;51.024;13.828;2023-09-12T05:46:36;21.50;90.80
9919;DHT22;4998;51.024;13.828;2023-09-12T05:49:03;21.60;90.80
9919;DHT22;4998;51.024;13.828;2023-09-12T05:51:30;21.70;90.80
9919;DHT22;4998;51.024;13.828;2023-09-12T05:53:57;21.70;90.80
9919;DHT22;4998;51.024;13.828;2023-09-12T05:56:24;21.80;90.80
9919;DHT22;4998;51.024;13.828;2023-09-12T05:58:51;21.90;90.80
9919;DHT22;4998;51.024;13.828;2023-09-12T06:01:18;21.90;90.70
9919;DHT22;4998;51.024;13.828;2023-09-12T06:03:47;22.00;90.70
9919;DHT22;4998;51.024;13.828;2023-09-12T06:06:14;22.10;90.70
9919;DHT22;4998;51.024;13.828;2023-09-12T06:08:41;22.20;90.70
9919;DHT22;4998;51.024;13.828;2023-09-12T06:11:08;22.30;90.70
9919;DHT22;4998;51.024;13.828;2023-09-12T06:13:35;22.40;90.60
9919;DHT22;4998;51.024;13.828;2023-09-12T06:16:03;22.50;90.60
9919;DHT22;4998;51.024;13.828;2023-09-12T06:18:31;22.60;90.70
9919;DHT22;4998;51.024;13.828;2023-09-12T06:20:59;22.70;90.60
9919;DHT22;4998;51.024;13.828;2023-09-12T06:23:30;22.90;90.50
9919;DHT22;4998;51.024;13.828;2023-09-12T06:25:57;23.10;90.50
9919;DHT22;4998;51.024;13.828;2023-09-12T06:28:28;23.20;90.50
9919;DHT22;4998;51.024;13.828;2023-09-12T06:30:55;23.30;90.30
9919;DHT22;4998;51.024;13.828;2023-09-12T06:33:24;23.40;90.30
9919;DHT22;4998;51.024;13.828;2023-09-12T06:35:51;23.50;90.10
9919;DHT22;4998;51.024;13.828;2023-09-12T06:38:21;23.60;90.00
9919;DHT22;4998;51.024;13.828;2023-09-12T06:40:48;23.80;89.60
9919;DHT22;4998;51.024;13.828;2023-09-12T06:43:15;23.80;89.40
9919;DHT22;4998;51.024;13.828;2023-09-12T06:45:42;24.00;89.30
9919;DHT22;4998;51.024;13.828;2023-09-12T06:48:09;24.00;88.90
9919;DHT22;4998;51.024;13.828;2023-09-12T06:50:36;24.10;88.80
9919;DHT22;4998;51.024;13.828;2023-09-12T06:53:04;24.10;88.40
9919;DHT22;4998;51.024;13.828;2023-09-12T06:55:33;24.20;88.50
9919;DHT22;4998;51.024;13.828;2023-09-12T06:58:00;24.30;88.30
9919;DHT22;4998;51.024;13.828;2023-09-12T07:00:27;24.30;88.10
9919;DHT22;4998;51.024;13.828;2023-09-12T07:02:54;24.40;88.10
9919;DHT22;4998;51.024;13.828;2023-09-12T07:05:21;24.50;88.00
9919;DHT22;4998;51.024;13.828;2023-09-12T07:07:48;24.60;87.80
9919;DHT22;4998;51.024;13.828;2023-09-12T07:10:16;24.60;87.60
9919;DHT22;4998;51.024;13.828;2023-09-12T07:12:45;24.70;87.30
9919;DHT22;4998;51.024;13.828;2023-09-12T07:15:12;24.80;87.20
9919;DHT22;4998;51.024;13.828;2023-09-12T07:17:39;24.80;87.20
9919;DHT22;4998;51.024;13.828;2023-09-12T07:20:07;24.90;87.00
9919;DHT22;4998;51.024;13.828;2023-09-12T07:22:37;25.00;86.80
9919;DHT22;4998;51.024;13.828;2023-09-12T07:25:07;25.10;86.80
9919;DHT22;4998;51.024;13.828;2023-09-12T07:27:35;25.20;86.60
9919;DHT22;4998;51.024;13.828;2023-09-12T07:30:04;25.20;86.50
9919;DHT22;4998;51.024;13.828;2023-09-12T07:32:31;25.30;86.20
9919;DHT22;4998;51.024;13.828;2023-09-12T07:34:58;25.40;86.10
9919;DHT22;4998;51.024;13.828;2023-09-12T07:37:25;25.40;85.80
9919;DHT22;4998;51.024;13.828;2023-09-12T07:39:52;25.50;85.50
9919;DHT22;4998;51.024;13.828;2023-09-12T07:42:22;25.60;85.20
9919;DHT22;4998;51.024;13.828;2023-09-12T07:44:49;25.60;84.90
9919;DHT22;4998;51.024;13.828;2023-09-12T07:47:17;25.70;84.90
9919;DHT22;4998;51.024;13.828;2023-09-12T07:49:44;25.80;84.90
9919;DHT22;4998;51.024;13.828;2023-09-12T07:52:12;25.80;84.70
9919;DHT22;4998;51.024;13.828;2023-09-12T07:54:39;25.90;84.60
9919;DHT22;4998;51.024;13.828;2023-09-12T07:57:05;25.90;84.40
9919;DHT22;4998;51.024;13.828;2023-09-12T07:59:33;26.00;84.40
9919;DHT22;4998;51.024;13.828;2023-09-12T08:02:01;26.00;84.10
9919;DHT22;4998;51.024;13.828;2023-09-12T08:04:29;26.10;84.10
9919;DHT22;4998;51.024;13.828;2023-09-12T08:06:56;26.20;83.60
9919;DHT22;4998;51.024;13.828;2023-09-12T08:09:23;26.20;83.30
9919;DHT22;4998;51.024;13.828;2023-09-12T08:11:50;26.30;83.10
9919;DHT22;4998;51.024;13.828;2023-09-12T08:14:17;26.40;82.80
9919;DHT22;4998;51.024;13.828;2023-09-12T08:16:46;26.50;82.80
9919;DHT22;4998;51.024;13.828;2023-09-12T08:19:13;26.50;82.10
9919;DHT22;4998;51.024;13.828;2023-09-12T08:21:41;26.60;81.90
9919;DHT22;4998;51.024;13.828;2023-09-12T08:24:08;26.60;81.30
9919;DHT22;4998;51.024;13.828;2023-09-12T08:26:35;26.70;81.40
9919;DHT22;4998;51.024;13.828;2023-09-12T08:29:02;26.70;81.00
9919;DHT22;4998;51.024;13.828;2023-09-12T08:31:29;26.80;80.90
9919;DHT22;4998;51.024;13.828;2023-09-12T08:33:56;26.80;80.50
9919;DHT22;4998;51.024;13.828;2023-09-12T08:36:24;26.80;80.30
9919;DHT22;4998;51.024;13.828;2023-09-12T08:38:52;26.90;80.30
9919;DHT22;4998;51.024;13.828;2023-09-12T08:41:19;26.90;79.60
9919;DHT22;4998;51.024;13.828;2023-09-12T08:43:46;27.00;79.50
9919;DHT22;4998;51.024;13.828;2023-09-12T08:46:15;27.00;79.00
9919;DHT22;4998;51.024;13.828;2023-09-12T08:48:43;27.10;78.60
9919;DHT22;4998;51.024;13.828;2023-09-12T08:51:12;27.10;78.40
9919;DHT22;4998;51.024;13.828;2023-09-12T08:53:39;27.10;77.30
9919;DHT22;4998;51.024;13.828;2023-09-12T08:56:08;27.20;77.30
9919;DHT22;4998;51.024;13.828;2023-09-12T08:58:36;27.20;76.40
9919;DHT22;4998;51.024;13.828;2023-09-12T09:01:06;27.30;76.40
9919;DHT22;4998;51.024;13.828;2023-09-12T09:03:37;27.30;75.70
9919;DHT22;4998;51.024;13.828;2023-09-12T09:06:04;27.30;75.30
9919;DHT22;4998;51.024;13.828;2023-09-12T09:08:32;27.40;74.20
9919;DHT22;4998;51.024;13.828;2023-09-12T09:11:01;27.40;73.20
9919;DHT22;4998;51.024;13.828;2023-09-12T09:13:30;27.50;72.60
9919;DHT22;4998;51.024;13.828;2023-09-12T09:16:11;27.50;71.70
9919;DHT22;4998;51.024;13.828;2023-09-12T09:18:52;27.60;72.20
9919;DHT22;4998;51.024;13.828;2023-09-12T09:21:20;27.60;72.20
9919;DHT22;4998;51.024;13.828;2023-09-12T09:23:50;27.70;72.00
9919;DHT22;4998;51.024;13.828;2023-09-12T09:26:17;27.70;72.40
9919;DHT22;4998;51.024;13.828;2023-09-12T09:28:45;27.80;72.20
9919;DHT22;4998;51.024;13.828;2023-09-12T09:31:26;27.90;71.60
9919;DHT22;4998;51.024;13.828;2023-09-12T09:33:54;27.90;71.60
9919;DHT22;4998;51.024;13.828;2023-09-12T09:36:21;28.00;71.40
9919;DHT22;4998;51.024;13.828;2023-09-12T09:38:48;28.10;71.50
9919;DHT22;4998;51.024;13.828;2023-09-12T09:41:15;28.10;71.10
9919;DHT22;4998;51.024;13.828;2023-09-12T09:43:44;28.20;70.80
9919;DHT22;4998;51.024;13.828;2023-09-12T09:46:15;28.30;70.10
9919;DHT22;4998;51.024;13.828;2023-09-12T09:48:48;28.40;69.40
9919;DHT22;4998;51.024;13.828;2023-09-12T09:51:16;28.40;69.20
9919;DHT22;4998;51.024;13.828;2023-09-12T09:53:43;28.50;69.80
9919;DHT22;4998;51.024;13.828;2023-09-12T09:56:11;28.60;69.50
9919;DHT22;4998;51.024;13.828;2023-09-12T09:58:47;28.70;68.10
9919;DHT22;4998;51.024;13.828;2023-09-12T10:01:17;28.70;67.50
9919;DHT22;4998;51.024;13.828;2023-09-12T10:03:46;28.80;66.40
9919;DHT22;4998;51.024;13.828;2023-09-12T10:06:15;28.90;66.10
9919;DHT22;4998;51.024;13.828;2023-09-12T10:08:44;29.00;65.20
9919;DHT22;4998;51.024;13.828;2023-09-12T10:11:14;29.10;64.40
9919;DHT22;4998;51.024;13.828;2023-09-12T10:13:46;29.20;63.10
9919;DHT22;4998;51.024;13.828;2023-09-12T10:16:16;29.20;62.50
9919;DHT22;4998;51.024;13.828;2023-09-12T10:18:49;29.30;63.00
9919;DHT22;4998;51.024;13.828;2023-09-12T10:21:25;29.40;61.60
9919;DHT22;4998;51.024;13.828;2023-09-12T10:23:55;29.50;61.60
9919;DHT22;4998;51.024;13.828;2023-09-12T10:26:23;29.60;62.00
9919;DHT22;4998;51.024;13.828;2023-09-12T10:28:52;29.60;61.10
9919;DHT22;4998;51.024;13.828;2023-09-12T10:31:21;29.70;60.50
9919;DHT22;4998;51.024;13.828;2023-09-12T10:33:50;29.70;60.20
9919;DHT22;4998;51.024;13.828;2023-09-12T10:36:18;29.80;59.70
9919;DHT22;4998;51.024;13.828;2023-09-12T10:38:48;29.90;59.20
9919;DHT22;4998;51.024;13.828;2023-09-12T10:41:16;29.90;58.50
9919;DHT22;4998;51.024;13.828;2023-09-12T10:43:44;29.90;58.30
9919;DHT22;4998;51.024;13.828;2023-09-12T10:46:16;30.00;58.10
9919;DHT22;4998;51.024;13.828;2023-09-12T10:48:44;30.00;57.60
9919;DHT22;4998;51.024;13.828;2023-09-12T10:51:11;30.10;57.60
9919;DHT22;4998;51.024;13.828;2023-09-12T10:53:45;30.20;57.30
9919;DHT22;4998;51.024;13.828;2023-09-12T10:56:16;30.20;56.40
9919;DHT22;4998;51.024;13.828;2023-09-12T10:59:13;30.30;56.40
9919;DHT22;4998;51.024;13.828;2023-09-12T11:01:42;30.30;56.60
9919;DHT22;4998;51.024;13.828;2023-09-12T11:04:33;30.40;55.80
9919;DHT22;4998;51.024;13.828;2023-09-12T11:07:01;30.40;55.80
9919;DHT22;4998;51.024;13.828;2023-09-12T11:09:28;30.50;55.70
9919;DHT22;4998;51.024;13.828;2023-09-12T11:11:57;30.50;55.50
9919;DHT22;4998;51.024;13.828;2023-09-12T11:14:25;30.50;55.40
9919;DHT22;4998;51.024;13.828;2023-09-12T11:17:22;30.50;55.40
9919;DHT22;4998;51.024;13.828;2023-09-12T11:19:50;30.60;55.50
9919;DHT22;4998;51.024;13.828;2023-09-12T11:22:26;30.70;54.80
9919;DHT22;4998;51.024;13.828;2023-09-12T11:24:53;30.70;54.20
9919;DHT22;4998;51.024;13.828;2023-09-12T11:27:22;30.70;54.40
9919;DHT22;4998;51.024;13.828;2023-09-12T11:29:49;30.80;54.10
9919;DHT22;4998;51.024;13.828;2023-09-12T11:32:32;30.80;54.20
9919;DHT22;4998;51.024;13.828;2023-09-12T11:35:05;30.90;53.70
9919;DHT22;4998;51.024;13.828;2023-09-12T11:37:32;30.90;53.20
9919;DHT22;4998;51.024;13.828;2023-09-12T11:40:05;30.90;53.30
9919;DHT22;4998;51.024;13.828;2023-09-12T11:42:42;31.00;53.10
9919;DHT22;4998;51.024;13.828;2023-09-12T11:45:10;31.00;53.20
9919;DHT22;4998;51.024;13.828;2023-09-12T11:47:41;31.10;53.10
9919;DHT22;4998;51.024;13.828;2023-09-12T11:50:09;31.10;52.30
9919;DHT22;4998;51.024;13.828;2023-09-12T11:52:36;31.20;52.60
9919;DHT22;4998;51.024;13.828;2023-09-12T11:55:05;31.20;52.00
9919;DHT22;4998;51.024;13.828;2023-09-12T11:57:32;31.20;52.30
9919;DHT22;4998;51.024;13.828;2023-09-12T12:00:03;31.30;51.80
9919;DHT22;4998;51.024;13.828;2023-09-12T12:02:34;31.30;51.30
9919;DHT22;4998;51.024;13.828;2023-09-12T12:05:03;31.40;51.50
9919;DHT22;4998;51.024;13.828;2023-09-12T12:07:30;31.40;51.30
9919;DHT22;4998;51.024;13.828;2023-09-12T12:09:57;31.40;51.40
9919;DHT22;4998;51.024;13.828;2023-09-12T12:12:25;31.50;51.10
9919;DHT22;4998;51.024;13.828;2023-09-12T12:14:52;31.50;51.00
9919;DHT22;4998;51.024;13.828;2023-09-12T12:17:19;31.50;50.70
9919;DHT22;4998;51.024;13.828;2023-09-12T12:19:46;31.60;50.60
9919;DHT22;4998;51.024;13.828;2023-09-12T12:22:14;31.60;50.00
9919;DHT22;4998;51.024;13.828;2023-09-12T12:24:45;31.70;50.10
9919;DHT22;4998;51.024;13.828;2023-09-12T12:27:14;31.70;50.00
9919;DHT22;4998;51.024;13.828;2023-09-12T12:29:41;31.70;49.70
9919;DHT22;4998;51.024;13.828;2023-09-12T12:32:10;31.70;49.90
9919;DHT22;4998;51.024;13.828;2023-09-12T12:34:37;31.80;49.80
9919;DHT22;4998;51.024;13.828;2023-09-12T12:37:04;31.80;49.80
9919;DHT22;4998;51.024;13.828;2023-09-12T12:39:33;31.80;49.70
9919;DHT22;4998;51.024;13.828;2023-09-12T12:42:00;31.90;49.40
9919;DHT22;4998;51.024;13.828;2023-09-12T12:44:35;31.90;49.20
9919;DHT22;4998;51.024;13.828;2023-09-12T12:47:06;31.90;48.80
9919;DHT22;4998;51.024;13.828;2023-09-12T12:49:36;32.00;49.00
9919;DHT22;4998;51.024;13.828;2023-09-12T12:52:05;32.00;48.70
9919;DHT22;4998;51.024;13.828;2023-09-12T12:54:33;32.00;48.80
9919;DHT22;4998;51.024;13.828;2023-09-12T12:57:00;32.00;48.70
9919;DHT22;4998;51.024;13.828;2023-09-12T12:59:28;32.10;48.80
9919;DHT22;4998;51.024;13.828;2023-09-12T13:02:00;32.10;48.60
9919;DHT22;4998;51.024;13.828;2023-09-12T13:04:28;32.10;48.50
9919;DHT22;4998;51.024;13.828;2023-09-12T13:07:01;32.20;48.40
9919;DHT22;4998;51.024;13.828;2023-09-12T13:09:28;32.20;48.40
9919;DHT22;4998;51.024;13.828;2023-09-12T13:11:57;32.20;48.40
9919;DHT22;4998;51.024;13.828;2023-09-12T13:14:24;32.30;48.50
9919;DHT22;4998;51.024;13.828;2023-09-12T13:16:56;32.20;48.20
9919;DHT22;4998;51.024;13.828;2023-09-12T13:19:23;32.30;47.90
9919;DHT22;4998;51.024;13.828;2023-09-12T13:21:50;32.30;47.70
9919;DHT22;4998;51.024;13.828;2023-09-12T13:24:17;32.30;47.60
9919;DHT22;4998;51.024;13.828;2023-09-12T13:26:44;32.30;47.60
9919;DHT22;4998;51.024;13.828;2023-09-12T13:29:13;32.30;47.50
9919;DHT22;4998;51.024;13.828;2023-09-12T13:31:40;32.30;47.40
9919;DHT22;4998;51.024;13.828;2023-09-12T13:34:07;32.30;47.60
9919;DHT22;4998;51.024;13.828;2023-09-12T13:36:34;32.40;47.50
9919;DHT22;4998;51.024;13.828;2023-09-12T13:39:01;32.40;47.20
9919;DHT22;4998;51.024;13.828;2023-09-12T13:41:28;32.40;46.90
9919;DHT22;4998;51.024;13.828;2023-09-12T13:43:55;32.40;46.80
9919;DHT22;4998;51.024;13.828;2023-09-12T13:46:23;32.40;47.40
9919;DHT22;4998;51.024;13.828;2023-09-12T13:48:50;32.40;46.60
9919;DHT22;4998;51.024;13.828;2023-09-12T13:51:17;32.50;46.60
9919;DHT22;4998;51.024;13.828;2023-09-12T13:53:44;32.50;46.50
9919;DHT22;4998;51.024;13.828;2023-09-12T13:56:11;32.50;46.30
9919;DHT22;4998;51.024;13.828;2023-09-12T13:58:38;32.50;45.60
9919;DHT22;4998;51.024;13.828;2023-09-12T14:01:05;32.50;45.70
9919;DHT22;4998;51.024;13.828;2023-09-12T14:03:33;32.50;45.50
9919;DHT22;4998;51.024;13.828;2023-09-12T14:06:00;32.50;45.70
9919;DHT22;4998;51.024;13.828;2023-09-12T14:08:27;32.50;45.60
9919;DHT22;4998;51.024;13.828;2023-09-12T14:10:54;32.60;45.70
9919;DHT22;4998;51.024;13.828;2023-09-12T14:13:21;32.60;45.70
9919;DHT22;4998;51.024;13.828;2023-09-12T14:15:49;32.60;45.70
9919;DHT22;4998;51.024;13.828;2023-09-12T14:18:16;32.60;45.80
9919;DHT22;4998;51.024;13.828;2023-09-12T14:20:45;32.70;45.90
9919;DHT22;4998;51.024;13.828;2023-09-12T14:23:12;32.70;45.60
9919;DHT22;4998;51.024;13.828;2023-09-12T14:25:39;32.70;45.70
9919;DHT22;4998;51.024;13.828;2023-09-12T14:28:06;32.80;45.30
9919;DHT22;4998;51.024;13.828;2023-09-12T14:30:33;32.80;45.00
9919;DHT22;4998;51.024;13.828;2023-09-12T14:33:02;32.80;45.00
9919;DHT22;4998;51.024;13.828;2023-09-12T14:35:29;32.90;45.00
9919;DHT22;4998;51.024;13.828;2023-09-12T14:37:57;32.90;44.50
9919;DHT22;4998;51.024;13.828;2023-09-12T14:40:25;32.90;44.10
9919;DHT22;4998;51.024;13.828;2023-09-12T14:42:53;32.90;44.10
9919;DHT22;4998;51.024;13.828;2023-09-12T14:45:20;32.90;44.00
9919;DHT22;4998;51.024;13.828;2023-09-12T14:47:47;32.90;44.10
9919;DHT22;4998;51.024;13.828;2023-09-12T14:50:14;33.00;43.90
9919;DHT22;4998;51.024;13.828;2023-09-12T14:52:41;32.90;43.70
9919;DHT22;4998;51.024;13.828;2023-09-12T14:55:10;33.00;43.80
9919;DHT22;4998;51.024;13.828;2023-09-12T14:57:37;33.00;43.80
9919;DHT22;4998;51.024;13.828;2023-09-12T15:00:06;33.00;43.60
9919;DHT22;4998;51.024;13.828;2023-09-12T15:02:33;32.90;43.50
9919;DHT22;4998;51.024;13.828;2023-09-12T15:05:01;33.00;43.50
9919;DHT22;4998;51.024;13.828;2023-09-12T15:07:29;32.90;43.30
9919;DHT22;4998;51.024;13.828;2023-09-12T15:09:56;32.90;43.30
9919;DHT22;4998;51.024;13.828;2023-09-12T15:12:25;32.90;43.20
9919;DHT22;4998;51.024;13.828;2023-09-12T15:14:52;32.90;43.10
9919;DHT22;4998;51.024;13.828;2023-09-12T15:17:19;32.90;43.20
9919;DHT22;4998;51.024;13.828;2023-09-12T15:19:46;32.90;43.20
9919;DHT22;4998;51.024;13.828;2023-09-12T15:22:13;32.90;42.90
9919;DHT22;4998;51.024;13.828;2023-09-12T15:24:40;32.90;42.90
9919;DHT22;4998;51.024;13.828;2023-09-12T15:27:08;32.80;42.70
9919;DHT22;4998;51.024;13.828;2023-09-12T15:29:36;32.80;42.70
9919;DHT22;4998;51.024;13.828;2023-09-12T15:32:03;32.80;42.50
9919;DHT22;4998;51.024;13.828;2023-09-12T15:34:31;32.80;42.60
9919;DHT22;4998;51.024;13.828;2023-09-12T15:37:09;32.80;42.80
9919;DHT22;4998;51.024;13.828;2023-09-12T15:39:36;32.80;42.60
9919;DHT22;4998;51.024;13.828;2023-09-12T15:42:04;32.80;43.10
9919;DHT22;4998;51.024;13.828;2023-09-12T15:44:31;32.80;43.50
9919;DHT22;4998;51.024;13.828;2023-09-12T15:47:00;32.80;43.00
9919;DHT22;4998;51.024;13.828;2023-09-12T15:49:27;32.80;42.70
9919;DHT22;4998;51.024;13.828;2023-09-12T15:51:56;32.80;42.50